Time;durP1;ratioP1;P1;durP2;ratioP2;P2;SDS_P1;SDS_P2;PMS_P1;PMS_P2;Temp;Humidity;BMP_temperature;BMP_pressure;BME280_temperature;BME280_humidity;BME280_pressure;Samples;Min_cycle;Max_cycle;Signal;HPM_P1;HPM_P2
2020/12/12 00:02:20;;;;;;;9.52;8.13;;;10.50;99.90;;;;;;5073147;28;20190;-79
2020/12/12 00:04:46;;;;;;;9.10;8.07;;;10.40;99.90;;;;;;5077108;28;20190;-79
2020/12/12 00:07:13;;;;;;;10.27;7.75;;;10.40;99.90;;;;;;5077163;28;20201;-78
2020/12/12 00:09:39;;;;;;;8.73;6.72;;;10.50;99.90;;;;;;5076898;28;20232;-78
2020/12/12 00:12:06;;;;;;;8.52;7.35;;;10.50;99.90;;;;;;5077060;28;20200;-78
2020/12/12 00:14:32;;;;;;;7.88;7.07;;;10.50;99.90;;;;;;5077157;28;20194;-78
2020/12/12 00:16:59;;;;;;;8.00;7.30;;;10.50;99.90;;;;;;5076984;28;20202;-78
2020/12/12 00:19:26;;;;;;;8.60;7.40;;;10.60;99.90;;;;;;5076806;28;20201;-78
2020/12/12 00:21:53;;;;;;;8.88;7.25;;;10.60;99.90;;;;;;5076739;28;20198;-79
2020/12/12 00:24:20;;;;;;;7.65;6.85;;;10.50;99.90;;;;;;5076904;28;20194;-78
2020/12/12 00:26:46;;;;;;;8.65;7.75;;;10.50;99.90;;;;;;5076663;28;20208;-78
2020/12/12 00:29:14;;;;;;;7.00;6.40;;;10.60;99.90;;;;;;5076513;28;20233;-78
2020/12/12 00:31:40;;;;;;;8.88;8.00;;;10.70;99.90;;;;;;5076507;28;20210;-79
2020/12/12 00:34:07;;;;;;;8.00;7.28;;;10.70;99.90;;;;;;5076766;28;20194;-79
2020/12/12 00:36:38;;;;;;;8.55;7.75;;;10.80;99.90;;;;;;5076719;28;20208;-78
2020/12/12 00:39:04;;;;;;;7.97;7.18;;;10.70;99.90;;;;;;5076637;28;20194;-78
2020/12/12 00:41:34;;;;;;;8.00;7.13;;;10.70;99.90;;;;;;5076202;28;20194;-78
2020/12/12 00:44:01;;;;;;;7.43;6.50;;;10.80;99.90;;;;;;5076496;28;20202;-78
2020/12/12 00:46:28;;;;;;;8.10;7.30;;;10.80;99.90;;;;;;5076337;28;20194;-78
2020/12/12 00:48:54;;;;;;;8.38;7.40;;;10.80;99.90;;;;;;5076231;28;20229;-78
2020/12/12 00:51:21;;;;;;;13.52;7.82;;;10.70;99.90;;;;;;5076258;28;20205;-78
2020/12/12 00:53:47;;;;;;;11.23;8.07;;;10.70;99.90;;;;;;5076063;28;20273;-78
2020/12/12 00:56:14;;;;;;;8.00;7.20;;;10.70;99.90;;;;;;5076322;28;20194;-78
2020/12/12 00:58:40;;;;;;;8.50;7.70;;;10.70;99.90;;;;;;5076344;28;20641;-78
2020/12/12 01:01:07;;;;;;;9.45;8.00;;;10.70;99.90;;;;;;5076018;28;20214;-78
2020/12/12 01:03:33;;;;;;;8.18;7.38;;;10.70;99.90;;;;;;5076124;28;20195;-78
2020/12/12 01:05:59;;;;;;;8.75;7.85;;;10.70;99.90;;;;;;5076177;28;20555;-78
2020/12/12 01:08:26;;;;;;;9.95;7.97;;;10.70;99.90;;;;;;5076100;28;20229;-78
2020/12/12 01:10:53;;;;;;;8.00;7.30;;;10.70;99.90;;;;;;5075855;28;20194;-78
2020/12/12 01:13:19;;;;;;;7.68;6.88;;;10.70;99.90;;;;;;5075665;28;20194;-78
2020/12/12 01:15:45;;;;;;;7.90;7.13;;;10.70;99.90;;;;;;5075790;28;20198;-78
2020/12/12 01:18:12;;;;;;;9.18;7.38;;;10.70;99.90;;;;;;5075778;28;20203;-78
2020/12/12 01:20:39;;;;;;;8.85;7.72;;;10.70;99.90;;;;;;5075797;28;20194;-78
2020/12/12 01:23:06;;;;;;;7.55;6.60;;;10.70;99.90;;;;;;5075549;28;20201;-78
2020/12/12 01:25:37;;;;;;;7.22;6.53;;;10.70;99.90;;;;;;5075716;28;20205;-78
2020/12/12 01:28:03;;;;;;;8.40;7.03;;;10.80;99.90;;;;;;5075646;28;20252;-78
2020/12/12 01:30:30;;;;;;;8.05;6.63;;;10.80;99.90;;;;;;5075499;28;20211;-78
2020/12/12 01:32:56;;;;;;;7.43;6.72;;;10.80;99.90;;;;;;5075466;28;20197;-78
2020/12/12 01:35:22;;;;;;;6.57;5.97;;;10.80;99.90;;;;;;5075732;28;20199;-78
2020/12/12 01:37:48;;;;;;;10.27;7.25;;;10.80;99.90;;;;;;5075276;28;20202;-78
2020/12/12 01:40:15;;;;;;;9.60;6.97;;;10.80;99.90;;;;;;5075261;28;20190;-78
2020/12/12 01:42:42;;;;;;;8.77;7.00;;;10.80;99.90;;;;;;5075487;28;20200;-78
2020/12/12 01:45:09;;;;;;;7.80;7.10;;;10.80;99.90;;;;;;5075360;28;20665;-78
2020/12/12 01:47:36;;;;;;;7.78;6.75;;;10.90;99.90;;;;;;5075235;28;20197;-78
2020/12/12 01:50:04;;;;;;;9.95;7.80;;;10.80;99.90;;;;;;5075138;28;20723;-78
2020/12/12 01:52:31;;;;;;;9.98;6.82;;;10.80;99.90;;;;;;5075392;28;20226;-78
2020/12/12 01:54:57;;;;;;;8.20;7.40;;;10.90;99.90;;;;;;5075032;28;20222;-78
2020/12/12 01:57:24;;;;;;;6.97;6.28;;;10.80;99.90;;;;;;5075044;28;20198;-78
2020/12/12 01:59:52;;;;;;;8.57;7.50;;;10.80;99.90;;;;;;5074979;28;20230;-78
2020/12/12 02:02:20;;;;;;;8.13;7.32;;;10.80;99.90;;;;;;5074761;28;20570;-78
2020/12/12 02:04:48;;;;;;;6.82;6.15;;;10.80;99.90;;;;;;5074913;28;20190;-79
2020/12/12 02:07:16;;;;;;;7.88;7.07;;;10.80;99.90;;;;;;5075030;28;20210;-78
2020/12/12 02:09:43;;;;;;;8.63;6.65;;;10.70;99.90;;;;;;5074872;28;20232;-78
2020/12/12 02:12:10;;;;;;;7.50;6.45;;;10.60;99.90;;;;;;5074992;28;20195;-78
2020/12/12 02:14:38;;;;;;;7.10;6.13;;;10.50;99.90;;;;;;5074887;28;20209;-78
2020/12/12 02:17:06;;;;;;;10.45;6.65;;;10.50;99.90;;;;;;5074751;28;20205;-78
2020/12/12 02:19:33;;;;;;;9.10;6.97;;;10.50;99.90;;;;;;5074528;28;20202;-78
2020/12/12 02:22:01;;;;;;;6.53;5.80;;;10.40;99.90;;;;;;5074491;28;20198;-79
2020/12/12 02:24:29;;;;;;;9.45;8.45;;;10.40;99.90;;;;;;5074589;28;20276;-78
2020/12/12 02:26:57;;;;;;;7.55;6.35;;;10.40;99.90;;;;;;5073681;28;20546;-78
2020/12/12 02:29:26;;;;;;;7.10;6.40;;;10.50;99.90;;;;;;5074406;28;20222;-78
2020/12/12 02:31:52;;;;;;;6.85;6.15;;;10.50;99.90;;;;;;5074336;28;20198;-79
2020/12/12 02:34:19;;;;;;;7.20;6.50;;;10.50;99.90;;;;;;5074211;28;20197;-78
2020/12/12 02:36:45;;;;;;;8.30;7.45;;;10.40;99.90;;;;;;5074459;28;20202;-78
2020/12/12 02:39:14;;;;;;;7.07;6.30;;;10.40;99.90;;;;;;5074290;28;20205;-78
2020/12/12 02:41:41;;;;;;;7.55;6.68;;;10.40;99.90;;;;;;5074130;28;20197;-78
2020/12/12 02:44:07;;;;;;;10.10;8.23;;;10.50;99.90;;;;;;5074189;28;20202;-78
2020/12/12 02:46:33;;;;;;;10.55;7.75;;;10.50;99.90;;;;;;5074075;28;20194;-78
2020/12/12 02:49:00;;;;;;;7.97;7.18;;;10.60;99.90;;;;;;5074079;28;20218;-78
2020/12/12 02:51:26;;;;;;;10.30;8.10;;;10.50;99.90;;;;;;5073913;28;20699;-78
2020/12/12 02:53:52;;;;;;;8.43;7.10;;;10.50;99.90;;;;;;5073775;28;20230;-78
2020/12/12 02:56:20;;;;;;;9.95;8.25;;;10.50;99.90;;;;;;5073966;28;20198;-78
2020/12/12 02:58:46;;;;;;;8.20;7.30;;;10.50;99.90;;;;;;5074018;28;20217;-78
2020/12/12 03:01:13;;;;;;;8.45;7.53;;;10.50;99.90;;;;;;5073940;28;20217;-79
2020/12/12 03:03:39;;;;;;;7.93;7.13;;;10.50;99.90;;;;;;5073876;28;20194;-78
2020/12/12 03:06:05;;;;;;;10.63;8.20;;;10.50;99.90;;;;;;5073835;28;20197;-78
2020/12/12 03:08:32;;;;;;;8.10;7.28;;;10.50;99.90;;;;;;5073498;28;20226;-78
2020/12/12 03:10:58;;;;;;;12.38;7.35;;;10.50;99.90;;;;;;5073886;28;20206;-78
2020/12/12 03:13:25;;;;;;;9.05;8.10;;;10.60;99.90;;;;;;5073510;28;20649;-79
2020/12/12 03:15:51;;;;;;;9.70;8.80;;;10.60;99.90;;;;;;5073616;28;20194;-79
2020/12/12 03:18:18;;;;;;;9.68;8.00;;;10.60;99.90;;;;;;5073592;28;20202;-79
2020/12/12 03:20:44;;;;;;;10.07;7.80;;;10.60;99.90;;;;;;5073499;28;20205;-78
2020/12/12 03:23:11;;;;;;;10.80;8.13;;;10.60;99.90;;;;;;5073548;28;20191;-78
2020/12/12 03:25:39;;;;;;;9.02;8.07;;;10.60;99.90;;;;;;5073387;28;20259;-78
2020/12/12 03:28:05;;;;;;;9.55;7.43;;;10.60;99.90;;;;;;5073260;28;20251;-78
2020/12/12 03:30:33;;;;;;;10.15;8.05;;;10.60;99.90;;;;;;5073348;28;20234;-79
2020/12/12 03:32:59;;;;;;;8.65;7.57;;;10.60;99.90;;;;;;5073440;28;20190;-79
2020/12/12 03:35:27;;;;;;;8.73;7.25;;;10.60;99.90;;;;;;5073339;28;20204;-78
2020/12/12 03:37:54;;;;;;;7.72;6.93;;;10.50;99.90;;;;;;5073063;28;20279;-79
2020/12/12 03:40:23;;;;;;;9.80;8.75;;;10.50;99.90;;;;;;5073318;28;20216;-78
2020/12/12 03:42:50;;;;;;;8.88;6.90;;;10.60;99.90;;;;;;5073179;28;20205;-78
2020/12/12 03:45:16;;;;;;;9.10;6.95;;;10.50;99.90;;;;;;5073392;28;20661;-78
2020/12/12 03:47:43;;;;;;;7.63;6.65;;;10.50;99.90;;;;;;5073229;28;20190;-78
2020/12/12 03:50:09;;;;;;;8.32;7.38;;;10.60;99.90;;;;;;5073079;28;20242;-79
2020/12/12 03:52:35;;;;;;;10.63;7.60;;;10.60;99.90;;;;;;5073150;28;20205;-78
2020/12/12 03:55:02;;;;;;;10.25;8.57;;;10.60;99.90;;;;;;5072910;28;20701;-79
2020/12/12 03:57:28;;;;;;;12.70;7.72;;;10.60;99.90;;;;;;5073128;28;20199;-78
2020/12/12 03:59:54;;;;;;;7.80;7.03;;;10.60;99.90;;;;;;5072993;28;20226;-78
2020/12/12 04:02:21;;;;;;;7.80;7.05;;;10.60;99.90;;;;;;5073098;28;20205;-78
2020/12/12 04:04:48;;;;;;;9.52;7.63;;;10.60;99.90;;;;;;5073160;28;20198;-79
2020/12/12 04:07:14;;;;;;;8.30;7.35;;;10.60;99.90;;;;;;5073159;28;20202;-78
2020/12/12 04:09:40;;;;;;;11.40;8.23;;;10.60;99.90;;;;;;5072895;28;20230;-78
2020/12/12 04:12:07;;;;;;;6.53;5.85;;;10.60;99.90;;;;;;5072997;28;20194;-79
2020/12/12 04:14:33;;;;;;;9.63;7.60;;;10.60;99.90;;;;;;5073044;28;20213;-78
2020/12/12 04:16:59;;;;;;;8.05;7.25;;;10.50;99.90;;;;;;5072889;28;20202;-79
2020/12/12 04:19:26;;;;;;;8.05;7.25;;;10.50;99.90;;;;;;5072953;28;20194;-78
2020/12/12 04:21:53;;;;;;;9.40;7.25;;;10.50;99.90;;;;;;5072847;28;20200;-78
2020/12/12 04:24:19;;;;;;;8.88;7.88;;;10.60;99.90;;;;;;5072864;28;20190;-78
2020/12/12 04:26:45;;;;;;;8.68;7.70;;;10.60;99.90;;;;;;5072795;28;20194;-78
2020/12/12 04:29:11;;;;;;;8.07;7.13;;;10.60;99.90;;;;;;5072585;28;20237;-78
2020/12/12 04:31:38;;;;;;;8.77;7.43;;;10.60;99.90;;;;;;5072820;28;20198;-78
2020/12/12 04:34:04;;;;;;;8.30;7.30;;;10.70;99.90;;;;;;5072725;28;20194;-78
2020/12/12 04:36:32;;;;;;;7.40;6.30;;;10.70;99.90;;;;;;5072797;28;20201;-78
2020/12/12 04:39:00;;;;;;;9.18;7.90;;;10.80;99.90;;;;;;5072714;28;20194;-78
2020/12/12 04:41:27;;;;;;;8.93;6.05;;;10.70;99.90;;;;;;5072756;28;20198;-78
2020/12/12 04:43:54;;;;;;;6.97;6.07;;;10.80;99.90;;;;;;5072728;28;20265;-78
2020/12/12 04:46:21;;;;;;;7.85;7.15;;;10.80;99.90;;;;;;5072674;28;20645;-78
2020/12/12 04:48:47;;;;;;;7.70;6.78;;;10.80;99.90;;;;;;5073059;28;20222;-78
2020/12/12 04:51:13;;;;;;;10.55;7.75;;;10.90;99.90;;;;;;5076316;28;20195;-78
2020/12/12 04:53:41;;;;;;;8.88;6.78;;;10.90;99.90;;;;;;5076059;28;20226;-78
2020/12/12 04:56:12;;;;;;;8.15;7.30;;;10.90;99.90;;;;;;5076304;28;20195;-78
2020/12/12 04:58:39;;;;;;;8.98;8.07;;;10.90;99.90;;;;;;5076322;28;20550;-79
2020/12/12 05:01:05;;;;;;;8.20;7.43;;;10.90;99.90;;;;;;5076101;28;20217;-78
2020/12/12 05:03:33;;;;;;;7.68;6.88;;;10.90;99.90;;;;;;5076023;28;20194;-78
2020/12/12 05:05:59;;;;;;;8.77;7.35;;;10.90;99.90;;;;;;5076031;28;20244;-78
2020/12/12 05:08:26;;;;;;;8.57;7.18;;;10.90;99.90;;;;;;5075846;28;20198;-78
2020/12/12 05:10:52;;;;;;;8.25;6.93;;;10.90;99.90;;;;;;5076148;28;20200;-78
2020/12/12 05:13:21;;;;;;;8.98;6.72;;;10.80;99.90;;;;;;5075862;28;20202;-78
2020/12/12 05:15:49;;;;;;;7.70;6.45;;;10.80;99.90;;;;;;5075994;28;20204;-78
2020/12/12 05:18:15;;;;;;;6.82;6.10;;;10.90;99.90;;;;;;5075792;28;20195;-78
2020/12/12 05:20:42;;;;;;;7.40;6.20;;;10.90;99.90;;;;;;5075749;28;20198;-78
2020/12/12 05:23:13;;;;;;;6.93;6.18;;;10.90;99.90;;;;;;5075800;28;20646;-78
2020/12/12 05:25:40;;;;;;;7.82;7.03;;;10.90;99.90;;;;;;5075574;28;20205;-78
2020/12/12 05:28:07;;;;;;;8.63;7.70;;;11.00;99.90;;;;;;5075677;28;20190;-79
2020/12/12 05:30:36;;;;;;;10.70;7.40;;;10.90;99.90;;;;;;5075592;28;20643;-78
2020/12/12 05:33:03;;;;;;;7.20;6.50;;;10.90;99.90;;;;;;5075453;28;20194;-79
2020/12/12 05:35:29;;;;;;;7.70;6.90;;;11.00;99.90;;;;;;5075392;28;20676;-78
2020/12/12 05:37:55;;;;;;;6.75;5.55;;;10.90;99.90;;;;;;5075363;28;20190;-79
2020/12/12 05:40:21;;;;;;;8.00;6.47;;;11.00;99.90;;;;;;5075549;28;20195;-78
2020/12/12 05:42:48;;;;;;;7.63;6.85;;;11.00;99.90;;;;;;5075622;28;20625;-78
2020/12/12 05:45:15;;;;;;;8.00;7.20;;;11.00;99.90;;;;;;5075585;28;20198;-78
2020/12/12 05:47:42;;;;;;;9.63;7.20;;;11.00;99.90;;;;;;5075311;28;20560;-79
2020/12/12 05:50:10;;;;;;;9.32;7.80;;;11.00;99.90;;;;;;5075302;28;20228;-78
2020/12/12 05:52:39;;;;;;;8.10;7.28;;;11.10;99.90;;;;;;5075197;28;20608;-79
2020/12/12 05:55:05;;;;;;;7.60;6.50;;;11.10;99.90;;;;;;5074922;28;20225;-78
2020/12/12 05:57:33;;;;;;;10.40;7.32;;;11.10;99.90;;;;;;5075002;28;20191;-79
2020/12/12 06:00:01;;;;;;;9.73;6.43;;;11.10;99.90;;;;;;5074861;28;20218;-78
2020/12/12 06:02:29;;;;;;;7.15;6.45;;;11.10;99.90;;;;;;5075014;28;20190;-78
2020/12/12 06:04:59;;;;;;;7.60;6.82;;;11.00;99.90;;;;;;5074949;28;20224;-79
2020/12/12 06:07:28;;;;;;;8.13;7.18;;;11.00;99.90;;;;;;5075017;28;20198;-78
2020/12/12 06:09:58;;;;;;;9.00;7.43;;;11.00;99.90;;;;;;5074837;28;20252;-79
2020/12/12 06:12:25;;;;;;;7.88;6.85;;;11.00;99.90;;;;;;5074774;28;20198;-78
2020/12/12 06:14:57;;;;;;;8.45;7.55;;;11.00;99.90;;;;;;5074734;28;20195;-78
2020/12/12 06:17:37;;;;;;;8.55;7.30;;;11.00;99.90;;;;;;5074709;28;20194;-79
2020/12/12 06:20:05;;;;;;;7.97;6.70;;;11.00;99.90;;;;;;5074680;28;20198;-78
2020/12/12 06:22:32;;;;;;;9.80;6.95;;;11.00;99.90;;;;;;5074526;28;20201;-78
2020/12/12 06:25:01;;;;;;;10.35;7.32;;;11.00;99.90;;;;;;5074623;28;20548;-78
2020/12/12 06:27:37;;;;;;;8.43;6.95;;;11.00;99.90;;;;;;5074499;28;20517;-79
2020/12/12 06:30:04;;;;;;;7.75;6.95;;;11.00;99.90;;;;;;5074406;28;20229;-78
2020/12/12 06:32:31;;;;;;;9.23;8.07;;;11.00;99.90;;;;;;5074297;28;20566;-78
2020/12/12 06:34:57;;;;;;;8.43;7.32;;;11.00;99.90;;;;;;5074184;28;20204;-78
2020/12/12 06:37:32;;;;;;;9.88;7.68;;;10.90;99.90;;;;;;5074286;28;20552;-78
2020/12/12 06:40:00;;;;;;;8.32;7.00;;;10.80;99.90;;;;;;5074129;28;20656;-79
2020/12/12 06:42:35;;;;;;;8.25;7.25;;;10.80;99.90;;;;;;5074271;28;20194;-79
2020/12/12 06:45:04;;;;;;;9.75;7.72;;;10.90;99.90;;;;;;5074116;28;20198;-79
2020/12/12 06:47:39;;;;;;;8.57;7.32;;;10.90;99.90;;;;;;5074117;28;20201;-79
2020/12/12 06:50:10;;;;;;;8.32;6.97;;;10.90;99.90;;;;;;5073944;28;20229;-78
2020/12/12 06:52:37;;;;;;;8.60;6.90;;;10.90;99.90;;;;;;5073880;28;20194;-79
2020/12/12 06:55:08;;;;;;;8.82;7.53;;;10.90;99.90;;;;;;5073701;28;20230;-79
2020/12/12 06:57:38;;;;;;;9.10;7.43;;;11.00;99.90;;;;;;5074083;28;20198;-79
2020/12/12 07:00:07;;;;;;;9.60;7.25;;;11.00;99.90;;;;;;5073838;28;20700;-79
2020/12/12 07:02:34;;;;;;;10.05;6.88;;;11.10;99.90;;;;;;5073805;28;20194;-78
2020/12/12 07:05:19;;;;;;;11.55;8.65;;;11.10;99.90;;;;;;5073480;28;20199;-79
2020/12/12 07:07:46;;;;;;;8.02;7.07;;;11.10;99.90;;;;;;5073581;28;20190;-79
2020/12/12 07:10:13;;;;;;;10.82;7.93;;;11.10;99.90;;;;;;5073732;28;20222;-78
2020/12/12 07:12:39;;;;;;;11.77;7.95;;;11.10;99.90;;;;;;5073021;28;20190;-78
2020/12/12 07:15:06;;;;;;;8.82;7.90;;;11.10;99.90;;;;;;5073579;28;20192;-78
2020/12/12 07:17:33;;;;;;;8.27;7.47;;;11.10;99.90;;;;;;5073583;28;20194;-78
2020/12/12 07:20:00;;;;;;;11.32;9.38;;;11.10;99.90;;;;;;5073517;28;20198;-78
2020/12/12 07:22:28;;;;;;;9.40;7.82;;;11.10;99.90;;;;;;5073687;28;20190;-79
2020/12/12 07:24:56;;;;;;;9.40;7.93;;;11.10;99.90;;;;;;5073353;28;20243;-78
2020/12/12 07:27:23;;;;;;;12.15;7.57;;;11.10;99.90;;;;;;5073555;28;20558;-78
2020/12/12 07:29:49;;;;;;;8.80;7.75;;;11.10;99.90;;;;;;5073214;28;20233;-78
2020/12/12 07:32:16;;;;;;;10.27;8.73;;;11.10;99.90;;;;;;5073247;28;20194;-78
2020/12/12 07:34:42;;;;;;;15.00;7.50;;;11.10;99.90;;;;;;5073380;28;20191;-78
2020/12/12 07:37:10;;;;;;;9.73;8.23;;;11.10;99.90;;;;;;5073218;28;20533;-78
2020/12/12 07:39:38;;;;;;;11.25;9.13;;;11.10;99.90;;;;;;5073290;28;20644;-78
2020/12/12 07:42:06;;;;;;;9.07;8.18;;;11.10;99.90;;;;;;5073404;28;20217;-78
2020/12/12 07:44:33;;;;;;;10.88;7.60;;;11.10;99.90;;;;;;5073300;28;20679;-78
2020/12/12 07:47:01;;;;;;;9.75;8.75;;;11.10;99.90;;;;;;5073250;28;20190;-78
2020/12/12 07:49:28;;;;;;;9.43;8.27;;;11.10;99.90;;;;;;5073320;28;20673;-78
2020/12/12 07:52:05;;;;;;;9.77;7.85;;;11.10;99.90;;;;;;5073142;28;20194;-78
2020/12/12 07:54:35;;;;;;;10.82;8.40;;;11.20;99.90;;;;;;5072893;28;20226;-79
2020/12/12 07:57:02;;;;;;;8.27;7.25;;;11.20;99.90;;;;;;5073300;28;20240;-78
2020/12/12 07:59:31;;;;;;;12.65;8.48;;;11.20;99.90;;;;;;5073221;28;20214;-78
2020/12/12 08:02:04;;;;;;;9.88;8.02;;;11.30;99.90;;;;;;5073298;28;20608;-78
2020/12/12 08:04:31;;;;;;;9.20;7.72;;;11.30;99.90;;;;;;5073134;28;20563;-78
2020/12/12 08:06:57;;;;;;;10.20;8.65;;;11.30;99.90;;;;;;5073310;28;20530;-78
2020/12/12 08:09:25;;;;;;;10.82;8.25;;;11.40;99.90;;;;;;5072855;28;20241;-77
2020/12/12 08:11:59;;;;;;;8.70;7.80;;;11.50;99.90;;;;;;5073000;28;20198;-77
2020/12/12 08:14:27;;;;;;;9.32;7.57;;;11.50;99.90;;;;;;5072966;28;20547;-78
2020/12/12 08:16:57;;;;;;;9.65;7.72;;;11.40;99.90;;;;;;5072952;28;20190;-78
2020/12/12 08:19:23;;;;;;;9.80;7.60;;;11.40;99.90;;;;;;5073052;28;20202;-77
2020/12/12 08:21:52;;;;;;;7.50;6.70;;;11.50;99.90;;;;;;5072795;28;20197;-77
2020/12/12 08:24:19;;;;;;;8.70;7.30;;;11.50;99.90;;;;;;5074356;28;20190;-76
2020/12/12 08:26:45;;;;;;;10.77;7.32;;;11.50;99.90;;;;;;5076655;28;20204;-78
2020/12/12 08:29:12;;;;;;;9.05;7.43;;;11.50;99.90;;;;;;5076735;28;20226;-78
2020/12/12 08:31:40;;;;;;;8.93;7.45;;;11.40;99.90;;;;;;5076442;28;20549;-78
2020/12/12 08:34:08;;;;;;;13.50;8.40;;;11.40;99.90;;;;;;5076695;28;20198;-79
2020/12/12 08:36:35;;;;;;;7.95;6.43;;;11.40;99.90;;;;;;5082785;28;20220;-78
2020/12/12 08:39:04;;;;;;;8.50;7.05;;;11.40;99.90;;;;;;5096798;28;20220;-78
2020/12/12 08:41:32;;;;;;;8.35;7.55;;;11.40;99.90;;;;;;5096496;28;20194;-78
2020/12/12 08:43:58;;;;;;;9.10;7.07;;;11.30;99.90;;;;;;5096788;28;20197;-78
2020/12/12 08:46:25;;;;;;;7.75;6.38;;;11.30;99.90;;;;;;5096621;28;20209;-78
2020/12/12 08:48:54;;;;;;;8.15;7.30;;;11.30;99.90;;;;;;5096709;28;20203;-78
2020/12/12 08:51:25;;;;;;;9.38;8.48;;;11.30;99.90;;;;;;5096726;28;20194;-78
2020/12/12 08:53:51;;;;;;;8.30;6.95;;;11.30;99.90;;;;;;5096369;28;20221;-78
2020/12/12 08:56:26;;;;;;;8.38;6.93;;;11.30;99.90;;;;;;5096416;28;20198;-79
2020/12/12 08:58:55;;;;;;;8.75;7.47;;;11.40;99.90;;;;;;5096440;28;20196;-79
2020/12/12 09:01:33;;;;;;;8.68;7.88;;;11.40;99.90;;;;;;5096206;28;20193;-78
2020/12/12 09:04:09;;;;;;;10.95;7.60;;;11.40;99.90;;;;;;5096644;28;20197;-79
2020/12/12 09:06:51;;;;;;;10.10;9.10;;;11.40;99.90;;;;;;5096292;28;20198;-78
2020/12/12 09:09:19;;;;;;;8.05;7.20;;;11.40;99.90;;;;;;5096314;28;20221;-78
2020/12/12 09:11:47;;;;;;;8.10;7.30;;;11.40;99.90;;;;;;5096124;28;20200;-79
2020/12/12 09:14:15;;;;;;;8.10;7.30;;;11.40;99.90;;;;;;5095766;28;20193;-79
2020/12/12 09:16:47;;;;;;;12.68;7.95;;;11.40;99.90;;;;;;5095753;28;20292;-79
2020/12/12 09:19:14;;;;;;;9.10;7.13;;;11.40;99.90;;;;;;5096212;28;20231;-79
2020/12/12 09:21:41;;;;;;;8.60;7.30;;;11.50;99.90;;;;;;5095978;28;20664;-78
2020/12/12 09:24:07;;;;;;;13.52;7.05;;;11.50;99.90;;;;;;5095957;28;20194;-79
2020/12/12 09:26:33;;;;;;;8.85;7.93;;;11.50;99.90;;;;;;5095964;28;20640;-77
2020/12/12 09:29:00;;;;;;;8.52;7.65;;;11.50;99.90;;;;;;5095581;28;20194;-78
2020/12/12 09:31:27;;;;;;;14.77;9.57;;;11.50;99.90;;;;;;5095867;28;20196;-78
2020/12/12 09:33:53;;;;;;;9.85;8.65;;;11.50;99.90;;;;;;5095708;28;20550;-78
2020/12/12 09:36:20;;;;;;;13.02;8.70;;;11.50;99.90;;;;;;5095277;28;20539;-79
2020/12/12 09:38:47;;;;;;;9.52;7.68;;;11.50;99.90;;;;;;5084064;28;20548;-79
2020/12/12 09:41:13;;;;;;;9.07;7.70;;;11.50;99.90;;;;;;5080570;28;20190;-78
2020/12/12 09:43:39;;;;;;;8.63;7.60;;;11.50;99.90;;;;;;5095011;28;20189;-78
2020/12/12 09:46:06;;;;;;;8.73;7.75;;;11.50;99.90;;;;;;5095220;28;20503;-78
2020/12/12 09:48:33;;;;;;;9.38;8.50;;;11.60;99.90;;;;;;5088579;28;20200;-79
2020/12/12 09:50:59;;;;;;;10.35;9.23;;;11.50;99.90;;;;;;5080794;28;20218;-78
2020/12/12 09:53:25;;;;;;;13.27;8.90;;;11.60;99.90;;;;;;5075001;28;20194;-78
2020/12/12 09:55:53;;;;;;;11.45;9.00;;;11.60;99.90;;;;;;5075299;28;20373;-78
2020/12/12 09:58:20;;;;;;;13.05;8.77;;;11.70;99.90;;;;;;5075057;28;20193;-79
2020/12/12 10:00:46;;;;;;;9.52;8.63;;;11.70;99.90;;;;;;5074906;28;20723;-79
2020/12/12 10:03:12;;;;;;;9.80;8.90;;;11.70;99.90;;;;;;5075134;28;20538;-78
2020/12/12 10:05:39;;;;;;;11.25;9.40;;;11.70;99.90;;;;;;5080026;28;20185;-79
2020/12/12 10:08:05;;;;;;;10.20;9.10;;;11.70;99.90;;;;;;5079902;28;20186;-78
2020/12/12 10:10:32;;;;;;;8.55;7.40;;;11.70;99.90;;;;;;5090374;28;20217;-79
2020/12/12 10:13:00;;;;;;;10.98;8.93;;;11.70;99.90;;;;;;5077716;28;20194;-78
2020/12/12 10:15:27;;;;;;;11.63;10.38;;;11.80;99.90;;;;;;5074405;28;20194;-79
2020/12/12 10:17:54;;;;;;;10.80;9.68;;;11.80;99.90;;;;;;5073727;28;20850;-79
2020/12/12 10:20:21;;;;;;;10.23;8.65;;;11.80;99.90;;;;;;5076048;28;20186;-78
2020/12/12 10:22:49;;;;;;;8.13;7.07;;;11.80;99.90;;;;;;5083957;28;20190;-78
2020/12/12 10:25:15;;;;;;;10.13;7.13;;;11.80;99.90;;;;;;5074615;28;20194;-78
2020/12/12 10:27:43;;;;;;;8.75;6.63;;;11.80;99.90;;;;;;5092098;28;20193;-77
2020/12/12 10:30:12;;;;;;;8.75;6.93;;;11.80;99.90;;;;;;5094598;28;20221;-77
2020/12/12 10:32:39;;;;;;;14.93;8.00;;;11.80;99.90;;;;;;5093579;28;20197;-78
2020/12/12 10:35:07;;;;;;;8.82;7.90;;;11.80;99.90;;;;;;5078094;28;20193;-78
2020/12/12 10:37:34;;;;;;;8.93;6.55;;;11.80;99.90;;;;;;5074374;28;20210;-78
2020/12/12 10:40:08;;;;;;;6.93;6.35;;;11.80;99.90;;;;;;5080959;28;20231;-79
2020/12/12 10:42:34;;;;;;;6.75;6.15;;;11.90;99.90;;;;;;5089299;28;20189;-78
2020/12/12 10:45:01;;;;;;;6.80;6.13;;;11.80;99.90;;;;;;5085124;28;20189;-78
2020/12/12 10:47:28;;;;;;;6.35;5.78;;;11.90;99.90;;;;;;5085253;28;20189;-79
2020/12/12 10:49:54;;;;;;;5.07;4.57;;;11.80;99.90;;;;;;5094120;28;20214;-78
2020/12/12 10:52:21;;;;;;;7.25;6.55;;;11.80;99.90;;;;;;5079068;28;20650;-79
2020/12/12 10:54:49;;;;;;;6.32;5.72;;;11.70;99.90;;;;;;5073924;28;20222;-78
2020/12/12 10:57:15;;;;;;;6.78;6.18;;;11.70;99.90;;;;;;5073908;28;20296;-79
2020/12/12 10:59:42;;;;;;;7.70;7.00;;;11.70;99.90;;;;;;5074143;28;20599;-78
2020/12/12 11:02:10;;;;;;;6.60;5.95;;;11.70;99.90;;;;;;5081390;28;20190;-78
2020/12/12 11:04:37;;;;;;;6.80;5.97;;;11.60;99.90;;;;;;5074354;28;20707;-79
2020/12/12 11:07:03;;;;;;;6.18;5.68;;;11.60;99.90;;;;;;5073061;28;20587;-78
2020/12/12 11:09:30;;;;;;;10.35;5.90;;;11.60;99.90;;;;;;5073486;28;20220;-78
2020/12/12 11:11:56;;;;;;;5.63;5.13;;;11.60;99.90;;;;;;5073266;28;20198;-78
2020/12/12 11:14:24;;;;;;;6.40;5.75;;;11.60;99.90;;;;;;5093138;28;20205;-78
2020/12/12 11:16:50;;;;;;;6.47;5.60;;;11.60;99.90;;;;;;5091457;28;20231;-78
2020/12/12 11:19:16;;;;;;;5.68;5.07;;;11.60;99.90;;;;;;5093126;28;20200;-78
2020/12/12 11:21:43;;;;;;;6.25;5.75;;;11.70;99.90;;;;;;5093323;28;20701;-80
2020/12/12 11:24:10;;;;;;;6.78;6.07;;;11.70;99.90;;;;;;5093706;28;20644;-80
2020/12/12 11:26:36;;;;;;;6.13;5.53;;;11.70;99.90;;;;;;5091936;28;20679;-80
2020/12/12 11:29:02;;;;;;;6.38;5.20;;;11.70;99.90;;;;;;5093318;28;20609;-80
2020/12/12 11:31:29;;;;;;;14.30;5.72;;;11.80;99.90;;;;;;5085716;28;20197;-79
2020/12/12 11:33:59;;;;;;;8.82;5.22;;;11.80;99.90;;;;;;5072558;28;20546;-79
2020/12/12 11:36:46;;;;;;;5.95;5.35;;;11.80;99.90;;;;;;5077355;28;20218;-80
2020/12/12 11:39:16;;;;;;;6.18;5.68;;;11.80;99.90;;;;;;5081497;28;20194;-78
2020/12/12 11:44:43;;;;;;;6.40;5.43;;;11.80;99.90;;;;;;5071333;28;20268;-79
2020/12/12 11:47:09;;;;;;;6.28;4.95;;;11.90;99.90;;;;;;5075360;28;20198;-79
2020/12/12 11:49:36;;;;;;;9.00;8.10;;;11.90;99.90;;;;;;5073378;28;20624;-79
2020/12/12 11:52:03;;;;;;;10.50;9.40;;;12.00;99.90;;;;;;5073137;28;20836;-79
2020/12/12 11:54:30;;;;;;;12.10;9.65;;;12.00;99.90;;;;;;5073162;28;20230;-83
2020/12/12 11:56:56;;;;;;;5.85;5.35;;;12.00;99.90;;;;;;5073108;28;20198;-82
2020/12/12 11:59:24;;;;;;;6.22;5.38;;;12.00;99.90;;;;;;5078600;28;20255;-80
2020/12/12 12:01:50;;;;;;;5.40;4.90;;;12.00;99.90;;;;;;5078988;28;20230;-80
2020/12/12 12:04:16;;;;;;;4.72;4.32;;;12.10;99.90;;;;;;5078931;28;20259;-80
2020/12/12 12:06:42;;;;;;;4.70;4.10;;;12.00;99.90;;;;;;5079329;28;20194;-80
2020/12/12 12:09:23;;;;;;;4.13;3.72;;;12.00;99.90;;;;;;5079924;28;20279;-80
2020/12/12 12:11:52;;;;;;;5.05;3.58;;;12.00;99.90;;;;;;5078410;28;20617;-80
2020/12/12 12:14:18;;;;;;;4.53;4.10;;;12.00;99.90;;;;;;5079733;28;20550;-80
2020/12/12 12:16:44;;;;;;;4.72;4.22;;;12.00;99.90;;;;;;5079639;28;20200;-79
2020/12/12 12:19:13;;;;;;;4.65;4.25;;;12.00;99.90;;;;;;5079700;28;20197;-80
2020/12/12 12:21:40;;;;;;;3.60;3.30;;;11.90;99.90;;;;;;5079688;28;20198;-80
2020/12/12 12:24:08;;;;;;;3.75;3.45;;;11.90;99.90;;;;;;5079498;28;20726;-79
2020/12/12 12:26:36;;;;;;;4.57;4.20;;;12.00;99.90;;;;;;5079721;28;20198;-80
2020/12/12 12:29:04;;;;;;;7.55;4.00;;;12.10;99.90;;;;;;5079474;28;20218;-81
2020/12/12 12:31:31;;;;;;;6.30;4.50;;;12.10;99.90;;;;;;5079257;28;20197;-79
2020/12/12 12:33:57;;;;;;;3.72;3.42;;;12.20;99.90;;;;;;5079383;28;20205;-79
2020/12/12 12:36:24;;;;;;;4.50;4.10;;;12.20;99.90;;;;;;5079530;28;20194;-80
2020/12/12 12:38:51;;;;;;;4.68;4.22;;;12.20;99.90;;;;;;5079335;28;20213;-79
2020/12/12 12:41:18;;;;;;;6.15;3.83;;;12.20;99.90;;;;;;5079546;28;20212;-80
2020/12/12 12:43:45;;;;;;;4.57;4.18;;;12.20;99.90;;;;;;5079614;28;20190;-80
2020/12/12 12:46:13;;;;;;;4.88;4.38;;;12.20;99.90;;;;;;5079492;28;20572;-80
2020/12/12 12:48:39;;;;;;;4.00;3.70;;;12.20;99.90;;;;;;5079622;28;20649;-80
2020/12/12 12:51:06;;;;;;;4.80;4.30;;;12.20;99.90;;;;;;5079139;28;20221;-79